Portada
METAR-TAF:

METAR-TAF

Aeropuertos :

Aeropuerto Internacional de Shanghái-Pudong

Shanghái-Pudong, China

latitud: 31-07N, longitud: 121-46E, altitud: 4 m

Observación

El informe se hizo hace 20 minutos, a las 23:00 UTC
Viento 4 kt del suroeste
Temperatura 25°C
Humedad 89%
Presión 1011 hPa
Visibilidad: 8000 m

METAR: ZSPD 212300Z 22002MPS 8000 NSC 25/23 Q1011 NOSIG

Hora: 07:20 (23:20 UTC)

Pronóstico

El informe se hizo hace 8 horas y 13 minutos, a las 15:07 UTC
Pronóstico válido del 21 a las 18 UTC al 22 a las 18 UTC
Viento 8 kt del suroeste
Visibilidad: 6000 m
Cielo nuboso a una altura de 2000 ft

TAF: ZSPD 211507Z 2118/2218 22004MPS 6000 BKN020 TX33/2206Z TN23/2121Z

Observaciones y pronósticos meteorológicos de más de 4000 aeropuertos (mensajes METAR y TAF).

Los puntos amarillos y rojos representan las estaciones disponibles.

Ponga el ratón en el punto deseado para ver el nombre de la estación.

Haga clic para ver las observaciones y los pronósticos meteorológicos.

Para cambiar el mapa : haga clic en los botones verdes con una cruz de color negro para hacer un zoom, en el botón verde con un guión para alejar o en las flechas verdes para mapas adyacentes.


METAR-TAF: